Time;durP1;ratioP1;P1;durP2;ratioP2;P2;SDS_P1;SDS_P2;PMS_P1;PMS_P2;Temp;Humidity;BMP_temperature;BMP_pressure;BME280_temperature;BME280_humidity;BME280_pressure;Samples;Min_cycle;Max_cycle;Signal;HPM_P1;HPM_P2
2022/01/28 00:01:38;;;;;;;21.23;11.60;;;;;;;;;;5017978;28;20030;-59
2022/01/28 00:04:13;;;;;;;21.40;12.60;;;;;;;;;;5020356;28;20045;-59
2022/01/28 00:06:39;;;;;;;22.42;13.63;;;;;;;;;;5024189;28;20040;-59
2022/01/28 00:09:05;;;;;;;18.77;11.70;;;;;;;;;;5018325;28;20038;-59
2022/01/28 00:11:31;;;;;;;20.23;11.75;;;;;;;;;;5018968;28;20033;-59
2022/01/28 00:38:36;;;;;;;21.08;12.65;;;;;;;;;;5023684;28;20478;-59
2022/01/28 00:41:02;;;;;;;20.25;11.82;;;;;;;;;;5019822;28;20033;-59
2022/01/28 00:43:28;;;;;;;16.08;11.32;;;;;;;;;;5016369;28;20045;-59
2022/01/28 00:45:55;;;;;;;22.05;11.93;;;;;;;;;;5025459;28;20029;-59
2022/01/28 00:48:21;;;;;;;17.65;11.27;;;;;;;;;;5022618;28;20037;-59
2022/01/28 00:50:47;;;;;;;17.98;11.98;;;;;;;;;;5024275;28;20030;-59
2022/01/28 00:53:13;;;;;;;17.63;11.45;;;;;;;;;;5016922;28;20040;-59
2022/01/28 00:55:39;;;;;;;19.25;11.95;;;;;;;;;;5017487;28;20033;-59
2022/01/28 00:58:05;;;;;;;18.95;12.10;;;;;;;;;;5017854;28;20496;-59
2022/01/28 01:00:31;;;;;;;16.25;10.95;;;;;;;;;;5018765;28;20084;-59
2022/01/28 01:02:57;;;;;;;22.50;12.20;;;;;;;;;;5022995;28;20458;-59
2022/01/28 01:05:23;;;;;;;16.48;11.65;;;;;;;;;;5021469;28;20032;-59
2022/01/28 01:07:49;;;;;;;18.38;11.80;;;;;;;;;;5017003;28;20079;-59
2022/01/28 01:10:16;;;;;;;21.88;12.32;;;;;;;;;;5019933;28;20088;-59
2022/01/28 01:12:46;;;;;;;19.67;12.63;;;;;;;;;;5019735;28;20038;-59
2022/01/28 01:15:20;;;;;;;19.80;11.95;;;;;;;;;;5021114;28;20025;-59
2022/01/28 01:23:22;;;;;;;19.63;12.30;;;;;;;;;;5025615;28;21562;-59
2022/01/28 01:25:46;;;;;;;19.52;11.80;;;;;;;;;;5020125;28;20040;-59
2022/01/28 01:28:13;;;;;;;20.35;12.40;;;;;;;;;;5023600;28;20129;-60
2022/01/28 01:30:41;;;;;;;23.00;12.27;;;;;;;;;;5020991;28;20663;-59
2022/01/28 01:33:08;;;;;;;18.65;11.70;;;;;;;;;;5022080;28;20497;-59
2022/01/28 01:35:34;;;;;;;20.70;11.75;;;;;;;;;;5021402;28;20075;-60
2022/01/28 01:38:00;;;;;;;19.25;12.52;;;;;;;;;;5022346;28;20129;-59
2022/01/28 01:40:35;;;;;;;17.88;10.50;;;;;;;;;;5022403;28;20029;-59
2022/01/28 01:43:21;;;;;;;17.95;11.07;;;;;;;;;;5020492;28;20041;-61
2022/01/28 03:28:44;;;;;;;17.98;10.68;;;;;;;;;;5014159;28;20141;-60
2022/01/28 03:31:10;;;;;;;19.80;10.82;;;;;;;;;;5021763;28;20107;-60
2022/01/28 03:33:36;;;;;;;18.23;10.20;;;;;;;;;;5020757;28;20026;-60
2022/01/28 03:36:06;;;;;;;18.92;10.90;;;;;;;;;;5021002;28;20129;-60
2022/01/28 03:38:32;;;;;;;17.25;9.98;;;;;;;;;;5026367;28;20390;-60
2022/01/28 03:40:57;;;;;;;16.73;10.07;;;;;;;;;;5026111;28;20045;-60
2022/01/28 03:43:23;;;;;;;17.63;9.68;;;;;;;;;;5024533;28;20040;-59
2022/01/28 03:45:49;;;;;;;18.55;9.18;;;;;;;;;;5019237;28;20084;-59
2022/01/28 03:48:15;;;;;;;14.88;8.82;;;;;;;;;;5023384;28;20041;-59
2022/01/28 03:50:41;;;;;;;15.07;9.07;;;;;;;;;;5025639;28;20099;-59
2022/01/28 03:53:08;;;;;;;20.00;10.20;;;;;;;;;;5021083;28;20033;-59
2022/01/28 03:55:34;;;;;;;16.10;9.88;;;;;;;;;;5026603;28;20033;-59
2022/01/28 03:57:59;;;;;;;19.20;10.80;;;;;;;;;;5024565;28;20021;-59
2022/01/28 04:00:29;;;;;;;16.13;10.55;;;;;;;;;;5025143;28;20920;-59
2022/01/28 04:03:07;;;;;;;22.17;11.77;;;;;;;;;;5021315;28;20061;-59
2022/01/28 04:13:34;;;;;;;23.00;12.20;;;;;;;;;;5027770;28;20047;-59
2022/01/28 04:19:01;;;;;;;23.20;12.35;;;;;;;;;;5019720;28;20144;-59
2022/01/28 04:21:30;;;;;;;20.33;12.20;;;;;;;;;;5026768;28;20056;-59
2022/01/28 04:23:56;;;;;;;23.42;12.82;;;;;;;;;;5025169;28;20041;-59
2022/01/28 04:26:22;;;;;;;21.15;11.82;;;;;;;;;;5025301;28;20095;-59
2022/01/28 04:28:48;;;;;;;16.25;11.13;;;;;;;;;;5025539;28;20448;-59
2022/01/28 04:31:13;;;;;;;21.08;12.10;;;;;;;;;;5021675;28;20064;-59
2022/01/28 04:33:39;;;;;;;19.02;12.10;;;;;;;;;;5027914;28;20545;-59
2022/01/28 04:36:08;;;;;;;19.90;11.50;;;;;;;;;;5025138;28;20049;-59
2022/01/28 04:38:42;;;;;;;18.15;10.88;;;;;;;;;;5026192;28;20160;-59
2022/01/28 04:41:18;;;;;;;21.25;11.25;;;;;;;;;;5023961;28;20084;-59
2022/01/28 04:43:50;;;;;;;20.30;11.40;;;;;;;;;;5008804;28;20070;-59
2022/01/28 04:49:06;;;;;;;21.85;10.98;;;;;;;;;;5024895;28;20112;-60
2022/01/28 05:23:25;;;;;;;18.58;10.07;;;;;;;;;;5019776;28;20022;-59
2022/01/28 05:27:59;;;;;;;17.83;10.75;;;;;;;;;;5023767;28;20529;-59
2022/01/28 05:30:24;;;;;;;16.65;9.80;;;;;;;;;;5019723;28;22683;-59
2022/01/28 05:32:50;;;;;;;17.10;9.85;;;;;;;;;;5024822;28;20028;-60
2022/01/28 05:35:16;;;;;;;17.25;10.38;;;;;;;;;;5022383;28;20413;-59
2022/01/28 05:37:41;;;;;;;17.77;10.55;;;;;;;;;;5024039;28;20030;-60
2022/01/28 05:40:08;;;;;;;17.58;10.05;;;;;;;;;;5021021;28;20057;-59
2022/01/28 05:42:34;;;;;;;18.20;10.38;;;;;;;;;;5020788;28;20189;-59
2022/01/28 05:44:59;;;;;;;18.55;10.25;;;;;;;;;;5022661;28;20057;-59
2022/01/28 05:47:26;;;;;;;17.17;9.93;;;;;;;;;;5021232;28;20025;-59
2022/01/28 05:49:52;;;;;;;19.58;10.00;;;;;;;;;;5018068;28;20453;-60
2022/01/28 05:52:18;;;;;;;17.27;10.05;;;;;;;;;;5012827;28;20108;-60
2022/01/28 05:54:43;;;;;;;15.15;9.48;;;;;;;;;;5019948;28;20049;-60
2022/01/28 05:57:09;;;;;;;16.60;10.57;;;;;;;;;;5019751;28;20037;-59
2022/01/28 05:59:35;;;;;;;14.27;9.90;;;;;;;;;;5017969;28;20399;-59
2022/01/28 06:02:00;;;;;;;16.08;9.75;;;;;;;;;;5023028;28;20029;-60
2022/01/28 06:04:26;;;;;;;15.98;9.77;;;;;;;;;;5016055;28;20121;-59
2022/01/28 06:06:52;;;;;;;17.95;10.80;;;;;;;;;;5022913;28;20037;-59
2022/01/28 06:09:18;;;;;;;17.50;10.25;;;;;;;;;;5022793;28;20034;-59
2022/01/28 06:11:46;;;;;;;19.98;10.77;;;;;;;;;;5018668;28;20029;-59
2022/01/28 06:14:11;;;;;;;16.83;10.00;;;;;;;;;;5015852;28;20061;-59
2022/01/28 06:16:37;;;;;;;17.45;10.63;;;;;;;;;;5020813;28;20053;-59
2022/01/28 06:19:03;;;;;;;15.65;9.68;;;;;;;;;;5020413;28;20034;-59
2022/01/28 06:21:29;;;;;;;19.60;10.38;;;;;;;;;;5022322;28;20022;-59
2022/01/28 06:23:55;;;;;;;21.38;10.18;;;;;;;;;;5021469;28;20534;-59
2022/01/28 06:26:21;;;;;;;17.00;9.93;;;;;;;;;;5016764;28;20062;-59
2022/01/28 06:28:47;;;;;;;18.17;10.65;;;;;;;;;;5019724;28;20050;-60
2022/01/28 06:31:13;;;;;;;21.35;12.05;;;;;;;;;;5019458;28;20128;-59
2022/01/28 06:33:39;;;;;;;18.88;11.55;;;;;;;;;;5018997;28;20035;-59
2022/01/28 06:36:05;;;;;;;20.80;12.25;;;;;;;;;;5018666;28;20459;-59
2022/01/28 06:38:33;;;;;;;22.55;13.57;;;;;;;;;;5037733;28;20033;-59
2022/01/28 06:40:59;;;;;;;22.08;11.57;;;;;;;;;;5028195;28;20029;-59
2022/01/28 06:43:24;;;;;;;18.73;10.95;;;;;;;;;;5022948;28;20504;-59
2022/01/28 06:45:50;;;;;;;21.25;12.18;;;;;;;;;;5025278;28;20046;-59
2022/01/28 06:48:17;;;;;;;19.60;11.05;;;;;;;;;;5023166;28;20045;-59
2022/01/28 06:50:44;;;;;;;22.38;11.32;;;;;;;;;;5025685;28;20034;-59
2022/01/28 06:53:13;;;;;;;18.77;11.80;;;;;;;;;;5023655;28;20048;-59
2022/01/28 06:55:40;;;;;;;19.70;11.32;;;;;;;;;;5049962;28;20109;-59
2022/01/28 06:58:07;;;;;;;21.83;11.90;;;;;;;;;;5026724;28;20014;-59
2022/01/28 07:00:37;;;;;;;17.67;10.40;;;;;;;;;;5017250;28;20036;-60
2022/01/28 07:03:08;;;;;;;20.85;11.15;;;;;;;;;;5024362;28;20033;-59
2022/01/28 07:05:34;;;;;;;22.13;11.48;;;;;;;;;;5026043;28;20037;-60
2022/01/28 07:08:00;;;;;;;21.02;11.10;;;;;;;;;;5027890;28;20025;-58
2022/01/28 07:10:26;;;;;;;21.75;11.57;;;;;;;;;;5024463;28;20040;-59
2022/01/28 07:12:54;;;;;;;21.20;11.57;;;;;;;;;;5020300;28;20030;-59
2022/01/28 07:15:24;;;;;;;20.52;11.25;;;;;;;;;;5023692;28;20033;-58
2022/01/28 07:17:54;;;;;;;16.23;9.98;;;;;;;;;;5023953;28;20057;-59
2022/01/28 07:20:21;;;;;;;16.25;10.73;;;;;;;;;;5022417;28;20423;-59
2022/01/28 07:22:47;;;;;;;19.20;11.30;;;;;;;;;;5023988;28;20037;-59
2022/01/28 07:25:14;;;;;;;20.67;10.73;;;;;;;;;;5019262;28;20121;-60
2022/01/28 07:27:40;;;;;;;16.45;9.88;;;;;;;;;;5019305;28;20124;-59
2022/01/28 07:30:08;;;;;;;17.60;10.88;;;;;;;;;;5017782;28;20044;-59
2022/01/28 07:32:33;;;;;;;25.17;12.25;;;;;;;;;;5021785;28;20068;-59
2022/01/28 07:34:59;;;;;;;20.25;11.88;;;;;;;;;;5018646;28;20406;-59
2022/01/28 07:37:25;;;;;;;18.80;11.32;;;;;;;;;;5027527;28;20588;-59
2022/01/28 07:39:50;;;;;;;17.88;10.57;;;;;;;;;;5027005;28;20094;-59
2022/01/28 07:42:17;;;;;;;19.65;10.70;;;;;;;;;;5025166;28;20045;-59
2022/01/28 07:44:43;;;;;;;20.60;11.25;;;;;;;;;;5023829;28;20121;-59
2022/01/28 07:47:10;;;;;;;20.00;11.25;;;;;;;;;;5024445;28;20040;-59
2022/01/28 07:49:36;;;;;;;28.10;16.20;;;;;;;;;;5020122;28;20063;-59
2022/01/28 07:52:02;;;;;;;25.83;13.15;;;;;;;;;;5020333;28;20070;-60
2022/01/28 07:54:28;;;;;;;23.92;13.27;;;;;;;;;;5021471;28;20080;-59
2022/01/28 07:56:54;;;;;;;20.55;11.77;;;;;;;;;;5020938;28;20053;-60
2022/01/28 07:59:21;;;;;;;20.90;10.75;;;;;;;;;;5023762;28;20478;-60
2022/01/28 08:01:47;;;;;;;18.65;11.32;;;;;;;;;;5022971;28;20049;-60
2022/01/28 08:04:13;;;;;;;18.75;10.40;;;;;;;;;;5022387;28;20064;-60
2022/01/28 08:06:40;;;;;;;19.55;10.85;;;;;;;;;;5021612;28;20037;-60
2022/01/28 08:09:06;;;;;;;30.67;11.77;;;;;;;;;;5021706;28;20074;-60
2022/01/28 08:11:34;;;;;;;17.45;11.25;;;;;;;;;;5020888;28;20377;-60
2022/01/28 08:13:59;;;;;;;19.85;11.25;;;;;;;;;;5021930;28;20041;-58
2022/01/28 08:16:25;;;;;;;16.02;10.55;;;;;;;;;;5026076;28;20036;-60
2022/01/28 08:18:51;;;;;;;21.08;11.15;;;;;;;;;;5023592;28;20041;-60
2022/01/28 08:21:17;;;;;;;19.77;10.20;;;;;;;;;;5023834;28;20044;-60
2022/01/28 08:23:42;;;;;;;16.33;10.48;;;;;;;;;;5023066;28;20029;-60
2022/01/28 08:26:08;;;;;;;18.15;10.48;;;;;;;;;;5023162;28;20465;-59
2022/01/28 08:28:35;;;;;;;19.02;10.45;;;;;;;;;;5017918;28;20072;-59
2022/01/28 08:31:01;;;;;;;14.55;9.18;;;;;;;;;;5023599;28;20044;-59
2022/01/28 08:33:27;;;;;;;13.38;9.65;;;;;;;;;;5025979;28;20705;-59
2022/01/28 08:35:55;;;;;;;15.75;9.85;;;;;;;;;;5022042;28;20030;-60
2022/01/28 08:38:26;;;;;;;18.83;11.60;;;;;;;;;;5022523;28;20416;-59
2022/01/28 08:40:53;;;;;;;17.30;11.33;;;;;;;;;;5023913;28;20482;-59
2022/01/28 08:43:20;;;;;;;16.30;10.68;;;;;;;;;;5019463;28;20285;-60
2022/01/28 08:45:46;;;;;;;19.08;11.07;;;;;;;;;;5021222;28;20034;-60
2022/01/28 08:48:11;;;;;;;21.67;11.77;;;;;;;;;;5022105;28;20025;-60
2022/01/28 08:50:37;;;;;;;17.33;10.73;;;;;;;;;;5022476;28;20520;-60
2022/01/28 08:53:03;;;;;;;18.63;11.35;;;;;;;;;;5023159;28;20041;-59
2022/01/28 08:55:29;;;;;;;17.45;10.40;;;;;;;;;;5017936;28;20083;-59
2022/01/28 08:57:56;;;;;;;13.63;9.00;;;;;;;;;;5020570;28;20045;-59
2022/01/28 09:00:22;;;;;;;15.48;9.70;;;;;;;;;;5019428;28;20372;-60
2022/01/28 09:02:50;;;;;;;16.95;10.20;;;;;;;;;;5015599;28;20029;-60
2022/01/28 09:05:17;;;;;;;16.55;9.73;;;;;;;;;;5024514;28;20038;-59
2022/01/28 09:07:43;;;;;;;18.02;10.98;;;;;;;;;;5019342;28;20062;-60
2022/01/28 09:10:13;;;;;;;15.95;10.57;;;;;;;;;;5015443;28;20511;-60
2022/01/28 09:12:47;;;;;;;19.27;10.50;;;;;;;;;;5019445;28;20079;-60
2022/01/28 09:15:13;;;;;;;15.63;10.48;;;;;;;;;;5020898;28;20590;-60
2022/01/28 09:17:39;;;;;;;16.42;9.70;;;;;;;;;;5021652;28;20445;-60
2022/01/28 09:20:05;;;;;;;13.57;9.02;;;;;;;;;;5017852;28;20076;-59
2022/01/28 09:22:31;;;;;;;14.20;8.38;;;;;;;;;;5025170;28;20374;-60
2022/01/28 09:24:57;;;;;;;14.40;8.70;;;;;;;;;;5022790;28;20029;-60
2022/01/28 09:27:23;;;;;;;14.10;9.45;;;;;;;;;;5021549;28;20045;-60
2022/01/28 09:29:50;;;;;;;13.20;8.07;;;;;;;;;;5020298;28;20077;-61
2022/01/28 09:32:19;;;;;;;13.43;8.93;;;;;;;;;;5020917;28;20095;-60
2022/01/28 09:34:44;;;;;;;11.60;8.15;;;;;;;;;;5018982;28;20042;-60
2022/01/28 09:37:13;;;;;;;14.55;9.88;;;;;;;;;;5022367;28;20114;-60
2022/01/28 09:39:44;;;;;;;21.50;10.55;;;;;;;;;;5021014;28;20033;-60
2022/01/28 09:42:15;;;;;;;19.95;11.27;;;;;;;;;;5014864;28;20979;-60
2022/01/28 09:44:42;;;;;;;19.70;11.23;;;;;;;;;;5020911;28;20083;-59
2022/01/28 09:47:11;;;;;;;16.83;10.55;;;;;;;;;;5018597;28;20371;-60
2022/01/28 09:49:39;;;;;;;19.27;11.07;;;;;;;;;;5018004;28;20109;-60
2022/01/28 09:52:06;;;;;;;16.98;9.90;;;;;;;;;;5014293;28;20029;-60
2022/01/28 09:54:32;;;;;;;18.10;9.98;;;;;;;;;;5017695;28;20368;-60
2022/01/28 09:56:59;;;;;;;16.85;9.32;;;;;;;;;;5021490;28;20431;-60
2022/01/28 09:59:24;;;;;;;13.57;8.32;;;;;;;;;;5021843;28;20042;-60
2022/01/28 10:01:52;;;;;;;9.68;7.05;;;;;;;;;;5019722;28;20358;-60
2022/01/28 10:04:19;;;;;;;9.10;6.28;;;;;;;;;;5018272;28;20047;-60
2022/01/28 10:06:46;;;;;;;7.78;5.70;;;;;;;;;;5013312;28;20026;-60
2022/01/28 10:09:15;;;;;;;7.13;5.57;;;;;;;;;;5019635;28;20083;-60
2022/01/28 10:11:44;;;;;;;8.05;5.68;;;;;;;;;;5021528;28;20044;-60
2022/01/28 10:14:16;;;;;;;8.85;5.25;;;;;;;;;;5024300;28;20661;-60
2022/01/28 10:16:51;;;;;;;;;;;;;;;;;;5024618;28;20036;-60
2022/01/28 10:19:17;;;;;;;15.45;5.45;;;;;;;;;;5024284;28;19925;-60
2022/01/28 10:21:46;;;;;;;6.78;5.18;;;;;;;;;;5023498;28;20033;-60
2022/01/28 10:24:15;;;;;;;9.27;6.05;;;;;;;;;;5027282;28;20044;-61
2022/01/28 10:27:06;;;;;;;6.80;5.13;;;;;;;;;;5023297;28;20041;-60
2022/01/28 10:29:39;;;;;;;15.18;6.35;;;;;;;;;;5025322;28;20552;-61
2022/01/28 10:32:10;;;;;;;10.63;5.53;;;;;;;;;;5020776;28;20037;-60
2022/01/28 10:34:43;;;;;;;8.55;5.60;;;;;;;;;;5027760;28;20049;-60
2022/01/28 10:37:27;;;;;;;11.45;5.72;;;;;;;;;;5019091;28;20037;-59
2022/01/28 10:40:09;;;;;;;7.20;5.20;;;;;;;;;;5017891;28;20048;-60
2022/01/28 10:42:36;;;;;;;7.55;4.80;;;;;;;;;;5027046;28;20029;-60
2022/01/28 10:45:13;;;;;;;7.03;4.88;;;;;;;;;;5026237;28;20096;-60
2022/01/28 10:47:40;;;;;;;5.95;5.00;;;;;;;;;;5024109;28;20084;-60
2022/01/28 10:50:20;;;;;;;4.60;4.15;;;;;;;;;;5021973;28;20025;-59
2022/01/28 10:53:00;;;;;;;7.47;4.25;;;;;;;;;;5023602;28;20033;-59
2022/01/28 10:55:29;;;;;;;5.15;4.45;;;;;;;;;;5023231;28;20391;-59
2022/01/28 10:57:57;;;;;;;5.22;4.43;;;;;;;;;;5026611;28;20025;-59
2022/01/28 11:00:27;;;;;;;5.45;4.07;;;;;;;;;;5028623;28;20160;-60
2022/01/28 11:02:54;;;;;;;5.75;4.20;;;;;;;;;;5020402;28;20126;-59
2022/01/28 11:05:21;;;;;;;4.30;3.90;;;;;;;;;;5022382;28;20037;-60
2022/01/28 11:07:48;;;;;;;4.97;3.92;;;;;;;;;;5028056;28;20087;-60
2022/01/28 11:10:14;;;;;;;7.93;3.90;;;;;;;;;;5020116;28;20243;-59
2022/01/28 11:12:40;;;;;;;4.93;3.63;;;;;;;;;;5023104;28;20018;-58
2022/01/28 11:15:07;;;;;;;7.82;6.10;;;;;;;;;;5019944;28;20244;-59
2022/01/28 11:17:36;;;;;;;6.28;4.40;;;;;;;;;;5020283;28;20048;-59
2022/01/28 11:20:02;;;;;;;5.55;3.60;;;;;;;;;;5025725;28;20466;-59
2022/01/28 11:22:47;;;;;;;5.28;3.70;;;;;;;;;;5021465;28;20036;-60
2022/01/28 11:25:44;;;;;;;4.30;3.90;;;;;;;;;;5021000;28;20052;-59
2022/01/28 11:28:12;;;;;;;5.45;3.40;;;;;;;;;;5020125;28;20056;-60
2022/01/28 11:30:49;;;;;;;9.32;3.70;;;;;;;;;;5021750;28;20691;-60
2022/01/28 11:33:16;;;;;;;7.40;3.40;;;;;;;;;;5023218;28;20101;-59
2022/01/28 11:36:00;;;;;;;3.67;3.33;;;;;;;;;;5023905;28;20034;-59
2022/01/28 11:38:29;;;;;;;6.57;3.95;;;;;;;;;;5021790;28;20050;-60
2022/01/28 11:40:57;;;;;;;5.13;3.45;;;;;;;;;;5021298;28;20033;-60
2022/01/28 11:43:24;;;;;;;5.28;3.33;;;;;;;;;;5017749;28;20036;-59
2022/01/28 11:46:31;;;;;;;4.88;3.28;;;;;;;;;;5020288;28;20479;-59
2022/01/28 11:49:02;;;;;;;4.68;3.47;;;;;;;;;;5018005;28;20049;-60
2022/01/28 11:51:41;;;;;;;4.45;3.60;;;;;;;;;;5026979;28;20029;-59
2022/01/28 11:54:13;;;;;;;3.85;3.30;;;;;;;;;;5020915;28;20037;-59
2022/01/28 11:57:01;;;;;;;3.92;3.60;;;;;;;;;;5019604;28;20025;-59
2022/01/28 11:59:29;;;;;;;10.93;3.90;;;;;;;;;;5019826;28;20034;-59
2022/01/28 12:01:54;;;;;;;4.28;3.60;;;;;;;;;;5017672;28;20373;-59
2022/01/28 12:04:26;;;;;;;4.22;3.67;;;;;;;;;;5018006;28;20128;-59
2022/01/28 12:07:03;;;;;;;4.88;3.28;;;;;;;;;;5025141;28;20145;-59
2022/01/28 12:09:30;;;;;;;4.53;3.13;;;;;;;;;;5022391;28;20124;-60
2022/01/28 12:11:58;;;;;;;7.00;4.90;;;;;;;;;;5021016;28;20121;-59
2022/01/28 12:14:48;;;;;;;3.78;3.38;;;;;;;;;;5024737;28;20135;-59
2022/01/28 12:17:29;;;;;;;4.88;3.00;;;;;;;;;;5024131;28;20045;-60
2022/01/28 12:20:14;;;;;;;11.95;2.80;;;;;;;;;;5024495;28;20041;-59
2022/01/28 12:22:59;;;;;;;4.75;2.97;;;;;;;;;;5021759;28;20116;-59
2022/01/28 12:25:36;;;;;;;8.38;3.30;;;;;;;;;;5021699;28;20037;-59
2022/01/28 12:28:21;;;;;;;9.45;3.13;;;;;;;;;;5022883;28;20124;-59
2022/01/28 12:30:59;;;;;;;4.90;3.15;;;;;;;;;;5020860;28;20077;-59
2022/01/28 12:33:30;;;;;;;10.95;3.40;;;;;;;;;;5018354;28;20050;-59
2022/01/28 12:35:57;;;;;;;6.82;3.42;;;;;;;;;;5014064;28;20029;-60
2022/01/28 12:38:30;;;;;;;12.02;4.03;;;;;;;;;;5019685;28;20083;-60
2022/01/28 12:41:05;;;;;;;8.18;3.85;;;;;;;;;;5020420;28;20466;-60
2022/01/28 12:43:32;;;;;;;8.90;3.60;;;;;;;;;;5017708;28;20531;-60
2022/01/28 12:46:00;;;;;;;5.22;3.55;;;;;;;;;;5022721;28;20025;-60
2022/01/28 12:48:27;;;;;;;10.25;4.13;;;;;;;;;;5023066;28;20037;-60
2022/01/28 12:50:54;;;;;;;12.93;3.80;;;;;;;;;;5021704;28;20120;-60
2022/01/28 12:53:30;;;;;;;10.23;4.07;;;;;;;;;;5017017;28;20029;-60
2022/01/28 12:55:57;;;;;;;7.82;3.47;;;;;;;;;;5022138;28;20025;-60
2022/01/28 12:58:37;;;;;;;6.70;3.78;;;;;;;;;;5017042;28;20036;-60
2022/01/28 13:01:08;;;;;;;5.78;3.88;;;;;;;;;;5016780;28;20156;-59
2022/01/28 13:03:39;;;;;;;7.53;3.92;;;;;;;;;;5020015;28;20051;-59
2022/01/28 13:09:11;;;;;;;9.95;3.67;;;;;;;;;;5013920;28;20089;-59
2022/01/28 13:11:44;;;;;;;12.60;3.78;;;;;;;;;;5020188;28;20037;-59
2022/01/28 13:14:12;;;;;;;10.80;4.13;;;;;;;;;;5022837;28;20417;-59
2022/01/28 13:16:41;;;;;;;6.57;3.70;;;;;;;;;;5016921;28;20117;-59
2022/01/28 13:19:08;;;;;;;6.07;3.72;;;;;;;;;;5014441;28;20081;-60
2022/01/28 13:21:34;;;;;;;4.35;3.50;;;;;;;;;;5025686;28;20037;-59
2022/01/28 13:24:09;;;;;;;6.18;4.00;;;;;;;;;;5021178;28;20109;-59
2022/01/28 13:26:59;;;;;;;5.72;3.47;;;;;;;;;;5020383;28;20032;-59
2022/01/28 13:29:32;;;;;;;6.30;3.90;;;;;;;;;;5020761;28;20060;-59
2022/01/28 13:32:00;;;;;;;6.75;3.80;;;;;;;;;;5020992;28;20037;-60
2022/01/28 13:34:26;;;;;;;6.72;3.78;;;;;;;;;;5013233;28;20064;-59
2022/01/28 13:36:54;;;;;;;12.57;3.50;;;;;;;;;;5021034;28;20029;-59
2022/01/28 13:39:22;;;;;;;7.28;3.50;;;;;;;;;;5019801;28;21799;-59
2022/01/28 13:42:05;;;;;;;4.95;3.75;;;;;;;;;;5025156;28;20040;-60
2022/01/28 13:44:33;;;;;;;5.07;3.90;;;;;;;;;;5024670;28;20029;-60
2022/01/28 13:47:02;;;;;;;8.70;3.50;;;;;;;;;;5024674;28;20546;-59
2022/01/28 13:49:35;;;;;;;6.18;4.10;;;;;;;;;;5014962;28;20496;-59
2022/01/28 13:52:29;;;;;;;10.55;4.22;;;;;;;;;;5023472;28;20037;-59
2022/01/28 13:54:55;;;;;;;9.63;4.68;;;;;;;;;;5020047;28;20029;-59
2022/01/28 13:57:27;;;;;;;14.07;4.40;;;;;;;;;;5019785;28;20493;-58
2022/01/28 14:00:00;;;;;;;11.07;3.63;;;;;;;;;;5022056;28;20033;-59
2022/01/28 14:02:27;;;;;;;4.45;3.88;;;;;;;;;;5027648;28;20041;-59
2022/01/28 14:04:52;;;;;;;9.13;3.47;;;;;;;;;;5015689;28;20032;-59
2022/01/28 14:07:26;;;;;;;8.48;3.92;;;;;;;;;;5022427;28;20033;-59
2022/01/28 14:09:59;;;;;;;10.18;3.90;;;;;;;;;;5025601;28;20385;-59
2022/01/28 14:12:43;;;;;;;7.75;4.05;;;;;;;;;;5025098;28;20630;-60
2022/01/28 14:15:49;;;;;;;6.72;4.72;;;;;;;;;;5023390;28;20795;-60
2022/01/28 14:18:14;;;;;;;4.10;3.70;;;;;;;;;;5024522;28;20045;-59
2022/01/28 14:20:40;;;;;;;6.72;3.67;;;;;;;;;;5024025;28;20104;-59
2022/01/28 14:23:07;;;;;;;10.60;4.10;;;;;;;;;;5016550;28;20053;-59
2022/01/28 14:25:33;;;;;;;8.90;3.80;;;;;;;;;;5022648;28;20030;-60
2022/01/28 14:30:43;;;;;;;10.70;5.25;;;;;;;;;;5024030;28;20084;-60
2022/01/28 14:33:11;;;;;;;7.72;3.80;;;;;;;;;;5019341;28;20037;-59
2022/01/28 14:35:38;;;;;;;9.55;4.10;;;;;;;;;;5025124;28;20032;-59
2022/01/28 14:38:05;;;;;;;11.70;4.43;;;;;;;;;;5025193;28;20080;-59
2022/01/28 14:40:31;;;;;;;9.23;4.07;;;;;;;;;;5019748;28;20029;-60
2022/01/28 14:42:57;;;;;;;6.07;3.58;;;;;;;;;;5021002;28;20038;-60
2022/01/28 14:45:23;;;;;;;14.55;4.07;;;;;;;;;;5025086;28;20508;-59
2022/01/28 14:47:49;;;;;;;11.10;3.92;;;;;;;;;;5023857;28;20036;-60
2022/01/28 14:50:15;;;;;;;4.70;4.03;;;;;;;;;;5022540;28;20037;-60
2022/01/28 14:52:41;;;;;;;9.05;4.50;;;;;;;;;;5019464;28;20022;-58
2022/01/28 14:55:07;;;;;;;9.80;3.85;;;;;;;;;;5021920;28;20080;-59
2022/01/28 14:57:33;;;;;;;8.13;4.40;;;;;;;;;;5026103;28;20550;-60
2022/01/28 14:59:59;;;;;;;6.45;4.07;;;;;;;;;;5025894;28;20049;-59
2022/01/28 15:02:27;;;;;;;8.05;4.95;;;;;;;;;;5026150;28;20060;-59
2022/01/28 15:04:58;;;;;;;6.97;4.65;;;;;;;;;;5021654;28;20022;-59
2022/01/28 15:07:27;;;;;;;6.23;3.67;;;;;;;;;;5025643;28;20125;-60
2022/01/28 15:09:58;;;;;;;7.35;3.53;;;;;;;;;;5018606;28;20318;-60
2022/01/28 15:12:24;;;;;;;8.00;3.90;;;;;;;;;;5025508;28;20038;-60
2022/01/28 15:14:49;;;;;;;16.48;5.38;;;;;;;;;;5029979;28;20095;-60
2022/01/28 15:17:17;;;;;;;4.85;4.30;;;;;;;;;;5027773;28;20474;-59
2022/01/28 15:19:43;;;;;;;9.57;4.88;;;;;;;;;;5018085;28;20029;-60
2022/01/28 15:22:10;;;;;;;6.53;4.90;;;;;;;;;;5025539;28;20043;-60
2022/01/28 15:24:36;;;;;;;7.68;3.83;;;;;;;;;;5024050;28;20145;-60
2022/01/28 15:27:02;;;;;;;4.88;3.33;;;;;;;;;;5027754;28;20480;-59
2022/01/28 15:37:06;;;;;;;7.70;5.30;;;;;;;;;;5022005;28;20057;-60
2022/01/28 15:39:35;;;;;;;6.43;4.90;;;;;;;;;;5021933;28;20056;-60
2022/01/28 15:42:06;;;;;;;17.73;11.35;;;;;;;;;;5023467;28;20021;-59
2022/01/28 15:44:32;;;;;;;9.38;5.30;;;;;;;;;;5022318;28;21543;-60
2022/01/28 15:46:58;;;;;;;8.68;4.50;;;;;;;;;;5019380;28;20477;-60
2022/01/28 15:49:24;;;;;;;9.48;6.55;;;;;;;;;;5019972;28;20063;-59
2022/01/28 15:51:50;;;;;;;7.55;5.03;;;;;;;;;;5019699;28;20470;-60
2022/01/28 15:54:17;;;;;;;8.43;4.65;;;;;;;;;;5020217;28;20037;-59
2022/01/28 15:56:43;;;;;;;15.57;9.25;;;;;;;;;;5022436;28;20050;-60
2022/01/28 15:59:09;;;;;;;12.32;6.82;;;;;;;;;;5015872;28;20053;-60
2022/01/28 16:01:35;;;;;;;13.63;7.00;;;;;;;;;;5020186;28;20068;-59
2022/01/28 16:04:01;;;;;;;7.53;5.10;;;;;;;;;;5018537;28;20038;-59
2022/01/28 16:06:27;;;;;;;6.93;5.18;;;;;;;;;;5024483;28;20037;-60
2022/01/28 16:08:54;;;;;;;7.13;4.80;;;;;;;;;;5016043;28;20378;-60
2022/01/28 16:11:27;;;;;;;21.30;10.38;;;;;;;;;;5018023;28;20037;-60
2022/01/28 16:19:04;;;;;;;6.45;5.30;;;;;;;;;;5021108;28;20076;-60
2022/01/28 16:21:30;;;;;;;8.30;4.40;;;;;;;;;;5021656;28;20040;-60
2022/01/28 16:23:58;;;;;;;4.68;4.18;;;;;;;;;;5018613;28;20018;-60
2022/01/28 16:26:25;;;;;;;5.85;5.10;;;;;;;;;;5018459;28;20128;-59
2022/01/28 16:28:51;;;;;;;6.95;4.13;;;;;;;;;;5019237;28;20041;-60
2022/01/28 16:31:17;;;;;;;3.97;3.58;;;;;;;;;;5017636;28;20108;-60
2022/01/28 16:33:43;;;;;;;4.60;4.20;;;;;;;;;;5021478;28;20200;-59
2022/01/28 16:36:10;;;;;;;5.40;4.00;;;;;;;;;;5022582;28;20018;-60
2022/01/28 16:38:36;;;;;;;5.35;4.05;;;;;;;;;;5023772;28;20037;-59
2022/01/28 16:41:06;;;;;;;6.40;4.38;;;;;;;;;;5023170;28;20029;-59
2022/01/28 16:43:31;;;;;;;5.55;4.40;;;;;;;;;;5014229;28;20079;-60
2022/01/28 16:45:58;;;;;;;7.05;4.15;;;;;;;;;;5023089;28;22682;-59
2022/01/28 16:48:23;;;;;;;8.00;4.28;;;;;;;;;;5024295;28;20037;-60
2022/01/28 16:50:50;;;;;;;8.55;5.00;;;;;;;;;;5016360;28;20037;-59
2022/01/28 16:53:17;;;;;;;11.20;4.07;;;;;;;;;;5019452;28;20702;-60
2022/01/28 16:55:44;;;;;;;4.65;4.10;;;;;;;;;;5022603;28;20029;-60
2022/01/28 16:58:10;;;;;;;8.18;4.07;;;;;;;;;;5017902;28;20053;-59
2022/01/28 17:00:36;;;;;;;7.53;4.40;;;;;;;;;;5016533;28;20041;-59
2022/01/28 17:03:03;;;;;;;4.55;4.03;;;;;;;;;;5021659;28;20088;-59
2022/01/28 17:05:29;;;;;;;7.90;4.00;;;;;;;;;;5015148;28;20018;-59
2022/01/28 17:07:56;;;;;;;6.70;4.30;;;;;;;;;;5019095;28;20029;-59
2022/01/28 17:10:35;;;;;;;6.85;5.07;;;;;;;;;;5019224;28;20561;-59
2022/01/28 17:13:04;;;;;;;9.52;6.32;;;;;;;;;;5018943;28;20038;-60
2022/01/28 17:15:30;;;;;;;6.75;4.85;;;;;;;;;;5018970;28;20034;-60
2022/01/28 17:17:56;;;;;;;6.20;4.85;;;;;;;;;;5019190;28;20165;-60
2022/01/28 17:20:22;;;;;;;7.72;4.55;;;;;;;;;;5021000;28;20463;-59
2022/01/28 17:22:49;;;;;;;7.22;4.72;;;;;;;;;;5021890;28;20038;-59
2022/01/28 17:25:15;;;;;;;6.72;4.30;;;;;;;;;;5021585;28;20176;-59
2022/01/28 17:27:41;;;;;;;6.97;4.10;;;;;;;;;;5022765;28;20077;-59
2022/01/28 17:30:08;;;;;;;5.78;4.35;;;;;;;;;;5025618;28;20123;-60
2022/01/28 17:32:35;;;;;;;5.18;4.30;;;;;;;;;;5017818;28;20025;-60
2022/01/28 17:35:01;;;;;;;7.25;4.25;;;;;;;;;;5013323;28;20507;-60
2022/01/28 17:37:28;;;;;;;8.38;4.50;;;;;;;;;;5012288;28;20619;-59
2022/01/28 17:39:57;;;;;;;6.45;4.53;;;;;;;;;;5022876;28;20033;-59
2022/01/28 17:42:24;;;;;;;6.60;4.53;;;;;;;;;;5019783;28;20117;-59
2022/01/28 17:44:50;;;;;;;14.60;9.70;;;;;;;;;;5020399;28;20026;-60
2022/01/28 17:47:15;;;;;;;6.55;5.25;;;;;;;;;;5018931;28;20064;-60
2022/01/28 17:49:41;;;;;;;14.73;9.23;;;;;;;;;;5017265;28;20104;-59
2022/01/28 17:52:08;;;;;;;8.07;6.28;;;;;;;;;;5023687;28;20056;-59
2022/01/28 17:54:34;;;;;;;6.40;4.90;;;;;;;;;;5018155;28;20032;-59
2022/01/28 17:57:01;;;;;;;6.43;4.78;;;;;;;;;;5020187;28;20029;-59
2022/01/28 17:59:27;;;;;;;4.68;4.28;;;;;;;;;;5016295;28;20040;-59